sensor_id;sensor_type;location;lat;lon;timestamp;P1;durP1;ratioP1;P2;durP2;ratioP2
52786;SDS011;38661;53.152;5.846;2022-11-21T00:00:02;27.83;;;19.85;;
52786;SDS011;38661;53.152;5.846;2022-11-21T00:02:31;25.92;;;17.90;;
52786;SDS011;38661;53.152;5.846;2022-11-21T00:04:56;29.77;;;19.08;;
52786;SDS011;38661;53.152;5.846;2022-11-21T00:07:22;27.90;;;19.15;;
52786;SDS011;38661;53.152;5.846;2022-11-21T00:09:48;27.45;;;19.83;;
52786;SDS011;38661;53.152;5.846;2022-11-21T00:12:14;27.85;;;19.60;;
52786;SDS011;38661;53.152;5.846;2022-11-21T00:14:40;26.95;;;19.38;;
52786;SDS011;38661;53.152;5.846;2022-11-21T00:17:06;31.67;;;22.25;;
52786;SDS011;38661;53.152;5.846;2022-11-21T00:19:32;36.17;;;24.63;;
52786;SDS011;38661;53.152;5.846;2022-11-21T00:21:57;35.53;;;24.63;;
52786;SDS011;38661;53.152;5.846;2022-11-21T00:24:23;35.38;;;23.85;;
52786;SDS011;38661;53.152;5.846;2022-11-21T00:26:49;34.70;;;22.80;;
52786;SDS011;38661;53.152;5.846;2022-11-21T00:29:14;32.42;;;22.20;;
52786;SDS011;38661;53.152;5.846;2022-11-21T00:31:40;34.40;;;21.73;;
52786;SDS011;38661;53.152;5.846;2022-11-21T00:34:06;33.63;;;21.33;;
52786;SDS011;38661;53.152;5.846;2022-11-21T00:36:33;30.17;;;20.45;;
52786;SDS011;38661;53.152;5.846;2022-11-21T00:38:58;28.42;;;20.25;;
52786;SDS011;38661;53.152;5.846;2022-11-21T00:41:24;32.25;;;20.25;;
52786;SDS011;38661;53.152;5.846;2022-11-21T00:43:50;29.52;;;21.10;;
52786;SDS011;38661;53.152;5.846;2022-11-21T00:46:15;31.88;;;20.85;;
52786;SDS011;38661;53.152;5.846;2022-11-21T00:48:41;30.00;;;20.38;;
52786;SDS011;38661;53.152;5.846;2022-11-21T00:51:07;31.52;;;19.75;;
52786;SDS011;38661;53.152;5.846;2022-11-21T00:53:32;28.65;;;20.52;;
52786;SDS011;38661;53.152;5.846;2022-11-21T00:55:58;31.77;;;19.80;;
52786;SDS011;38661;53.152;5.846;2022-11-21T00:58:24;27.23;;;18.52;;
52786;SDS011;38661;53.152;5.846;2022-11-21T01:00:50;27.70;;;19.63;;
52786;SDS011;38661;53.152;5.846;2022-11-21T01:03:16;30.92;;;20.67;;
52786;SDS011;38661;53.152;5.846;2022-11-21T01:05:43;31.30;;;19.83;;
52786;SDS011;38661;53.152;5.846;2022-11-21T01:08:08;30.58;;;19.42;;
52786;SDS011;38661;53.152;5.846;2022-11-21T01:10:34;27.92;;;18.95;;
52786;SDS011;38661;53.152;5.846;2022-11-21T01:13:00;32.03;;;20.40;;
52786;SDS011;38661;53.152;5.846;2022-11-21T01:15:26;29.75;;;19.90;;
52786;SDS011;38661;53.152;5.846;2022-11-21T01:17:52;28.73;;;19.13;;
52786;SDS011;38661;53.152;5.846;2022-11-21T01:20:18;27.05;;;18.75;;
52786;SDS011;38661;53.152;5.846;2022-11-21T01:22:43;31.33;;;20.55;;
52786;SDS011;38661;53.152;5.846;2022-11-21T01:25:09;32.90;;;20.42;;
52786;SDS011;38661;53.152;5.846;2022-11-21T01:27:35;29.52;;;20.67;;
52786;SDS011;38661;53.152;5.846;2022-11-21T01:30:00;31.30;;;20.55;;
52786;SDS011;38661;53.152;5.846;2022-11-21T01:32:26;31.08;;;21.33;;
52786;SDS011;38661;53.152;5.846;2022-11-21T01:34:52;32.17;;;20.40;;
52786;SDS011;38661;53.152;5.846;2022-11-21T01:37:17;38.40;;;26.45;;
52786;SDS011;38661;53.152;5.846;2022-11-21T01:39:43;41.80;;;26.80;;
52786;SDS011;38661;53.152;5.846;2022-11-21T01:42:09;35.05;;;20.52;;
52786;SDS011;38661;53.152;5.846;2022-11-21T01:44:48;30.85;;;20.45;;
52786;SDS011;38661;53.152;5.846;2022-11-21T01:47:15;28.40;;;19.17;;
52786;SDS011;38661;53.152;5.846;2022-11-21T01:49:41;39.85;;;25.45;;
52786;SDS011;38661;53.152;5.846;2022-11-21T01:59:50;32.80;;;21.60;;
52786;SDS011;38661;53.152;5.846;2022-11-21T02:02:20;41.45;;;25.50;;
52786;SDS011;38661;53.152;5.846;2022-11-21T02:04:49;34.97;;;21.90;;
52786;SDS011;38661;53.152;5.846;2022-11-21T02:07:16;33.40;;;22.20;;
52786;SDS011;38661;53.152;5.846;2022-11-21T02:09:45;31.45;;;21.00;;
52786;SDS011;38661;53.152;5.846;2022-11-21T02:12:27;42.08;;;25.33;;
52786;SDS011;38661;53.152;5.846;2022-11-21T02:15:03;52.53;;;32.10;;
52786;SDS011;38661;53.152;5.846;2022-11-21T02:17:30;34.75;;;22.80;;
52786;SDS011;38661;53.152;5.846;2022-11-21T02:20:00;32.88;;;21.40;;
52786;SDS011;38661;53.152;5.846;2022-11-21T02:27:51;32.88;;;20.92;;
52786;SDS011;38661;53.152;5.846;2022-11-21T02:30:21;33.75;;;21.55;;
52786;SDS011;38661;53.152;5.846;2022-11-21T02:32:47;30.45;;;20.38;;
52786;SDS011;38661;53.152;5.846;2022-11-21T02:35:14;35.35;;;22.88;;
52786;SDS011;38661;53.152;5.846;2022-11-21T02:37:41;33.72;;;21.65;;
52786;SDS011;38661;53.152;5.846;2022-11-21T02:40:14;34.08;;;22.83;;
52786;SDS011;38661;53.152;5.846;2022-11-21T02:45:34;33.88;;;21.77;;
52786;SDS011;38661;53.152;5.846;2022-11-21T02:48:04;31.73;;;21.80;;
52786;SDS011;38661;53.152;5.846;2022-11-21T02:50:30;36.30;;;21.85;;
52786;SDS011;38661;53.152;5.846;2022-11-21T02:53:01;36.60;;;22.75;;
52786;SDS011;38661;53.152;5.846;2022-11-21T02:55:28;38.63;;;23.48;;
52786;SDS011;38661;53.152;5.846;2022-11-21T02:57:53;33.72;;;21.98;;
52786;SDS011;38661;53.152;5.846;2022-11-21T03:00:19;39.00;;;23.27;;
52786;SDS011;38661;53.152;5.846;2022-11-21T03:02:45;35.53;;;22.42;;
52786;SDS011;38661;53.152;5.846;2022-11-21T03:05:12;43.35;;;25.48;;
52786;SDS011;38661;53.152;5.846;2022-11-21T03:07:41;66.55;;;35.72;;
52786;SDS011;38661;53.152;5.846;2022-11-21T03:10:07;43.05;;;26.75;;
52786;SDS011;38661;53.152;5.846;2022-11-21T03:12:36;37.60;;;23.90;;
52786;SDS011;38661;53.152;5.846;2022-11-21T03:15:03;47.92;;;28.70;;
52786;SDS011;38661;53.152;5.846;2022-11-21T03:17:29;40.67;;;24.80;;
52786;SDS011;38661;53.152;5.846;2022-11-21T03:19:55;31.52;;;21.73;;
52786;SDS011;38661;53.152;5.846;2022-11-21T03:22:21;35.65;;;22.63;;
52786;SDS011;38661;53.152;5.846;2022-11-21T03:24:46;35.50;;;22.48;;
52786;SDS011;38661;53.152;5.846;2022-11-21T03:27:12;100.00;;;52.08;;
52786;SDS011;38661;53.152;5.846;2022-11-21T03:29:38;112.88;;;52.80;;
52786;SDS011;38661;53.152;5.846;2022-11-21T03:32:04;59.08;;;32.30;;
52786;SDS011;38661;53.152;5.846;2022-11-21T03:34:29;37.42;;;23.88;;
52786;SDS011;38661;53.152;5.846;2022-11-21T03:36:55;38.55;;;24.15;;
52786;SDS011;38661;53.152;5.846;2022-11-21T03:39:21;28.83;;;20.48;;
52786;SDS011;38661;53.152;5.846;2022-11-21T03:41:46;31.90;;;20.20;;
52786;SDS011;38661;53.152;5.846;2022-11-21T03:44:12;33.00;;;21.38;;
52786;SDS011;38661;53.152;5.846;2022-11-21T03:46:39;35.38;;;20.85;;
52786;SDS011;38661;53.152;5.846;2022-11-21T03:49:06;34.80;;;21.90;;
52786;SDS011;38661;53.152;5.846;2022-11-21T03:51:33;31.92;;;20.95;;
52786;SDS011;38661;53.152;5.846;2022-11-21T03:53:59;32.17;;;21.33;;
52786;SDS011;38661;53.152;5.846;2022-11-21T03:56:26;33.22;;;21.85;;
52786;SDS011;38661;53.152;5.846;2022-11-21T03:58:52;48.35;;;27.92;;
52786;SDS011;38661;53.152;5.846;2022-11-21T04:01:18;47.63;;;28.65;;
52786;SDS011;38661;53.152;5.846;2022-11-21T04:03:44;43.25;;;27.83;;
52786;SDS011;38661;53.152;5.846;2022-11-21T04:06:11;42.17;;;25.95;;
52786;SDS011;38661;53.152;5.846;2022-11-21T04:08:37;36.22;;;22.88;;
52786;SDS011;38661;53.152;5.846;2022-11-21T04:11:03;40.50;;;24.13;;
52786;SDS011;38661;53.152;5.846;2022-11-21T04:13:29;36.47;;;21.60;;
52786;SDS011;38661;53.152;5.846;2022-11-21T04:15:55;31.77;;;20.50;;
52786;SDS011;38661;53.152;5.846;2022-11-21T04:18:21;33.22;;;21.55;;
52786;SDS011;38661;53.152;5.846;2022-11-21T04:20:47;54.00;;;29.80;;
52786;SDS011;38661;53.152;5.846;2022-11-21T04:23:12;50.47;;;30.30;;
52786;SDS011;38661;53.152;5.846;2022-11-21T04:25:39;38.55;;;24.27;;
52786;SDS011;38661;53.152;5.846;2022-11-21T04:28:05;40.95;;;24.95;;
52786;SDS011;38661;53.152;5.846;2022-11-21T04:30:32;39.53;;;24.35;;
52786;SDS011;38661;53.152;5.846;2022-11-21T04:32:58;45.45;;;26.45;;
52786;SDS011;38661;53.152;5.846;2022-11-21T04:35:24;50.35;;;31.75;;
52786;SDS011;38661;53.152;5.846;2022-11-21T04:37:52;49.15;;;28.30;;
52786;SDS011;38661;53.152;5.846;2022-11-21T04:40:18;39.30;;;25.88;;
52786;SDS011;38661;53.152;5.846;2022-11-21T04:42:44;40.72;;;23.50;;
52786;SDS011;38661;53.152;5.846;2022-11-21T04:45:11;43.40;;;27.23;;
52786;SDS011;38661;53.152;5.846;2022-11-21T04:47:38;41.85;;;26.63;;
52786;SDS011;38661;53.152;5.846;2022-11-21T04:50:06;41.47;;;26.25;;
52786;SDS011;38661;53.152;5.846;2022-11-21T04:52:32;45.20;;;27.98;;
52786;SDS011;38661;53.152;5.846;2022-11-21T04:54:59;41.97;;;26.35;;
52786;SDS011;38661;53.152;5.846;2022-11-21T04:57:26;42.28;;;25.80;;
52786;SDS011;38661;53.152;5.846;2022-11-21T04:59:53;43.05;;;26.15;;
52786;SDS011;38661;53.152;5.846;2022-11-21T05:02:19;40.83;;;25.23;;
52786;SDS011;38661;53.152;5.846;2022-11-21T05:04:45;41.80;;;24.63;;
52786;SDS011;38661;53.152;5.846;2022-11-21T05:07:10;39.80;;;23.92;;
52786;SDS011;38661;53.152;5.846;2022-11-21T05:09:36;38.13;;;24.58;;
52786;SDS011;38661;53.152;5.846;2022-11-21T05:12:02;40.60;;;25.52;;
52786;SDS011;38661;53.152;5.846;2022-11-21T05:17:12;41.25;;;24.45;;
52786;SDS011;38661;53.152;5.846;2022-11-21T05:19:38;33.00;;;22.50;;
52786;SDS011;38661;53.152;5.846;2022-11-21T05:22:04;44.40;;;26.48;;
52786;SDS011;38661;53.152;5.846;2022-11-21T05:24:29;40.35;;;24.27;;
52786;SDS011;38661;53.152;5.846;2022-11-21T05:26:55;38.00;;;25.05;;
52786;SDS011;38661;53.152;5.846;2022-11-21T05:29:21;42.20;;;26.38;;
52786;SDS011;38661;53.152;5.846;2022-11-21T05:31:46;40.30;;;25.30;;
52786;SDS011;38661;53.152;5.846;2022-11-21T05:34:12;41.70;;;26.02;;
52786;SDS011;38661;53.152;5.846;2022-11-21T05:36:38;43.53;;;26.13;;
52786;SDS011;38661;53.152;5.846;2022-11-21T05:39:03;36.60;;;24.08;;
52786;SDS011;38661;53.152;5.846;2022-11-21T05:41:29;38.33;;;24.80;;
52786;SDS011;38661;53.152;5.846;2022-11-21T05:43:55;36.20;;;22.90;;
52786;SDS011;38661;53.152;5.846;2022-11-21T05:46:22;41.10;;;25.35;;
52786;SDS011;38661;53.152;5.846;2022-11-21T05:48:50;41.10;;;24.63;;
52786;SDS011;38661;53.152;5.846;2022-11-21T05:51:17;46.75;;;26.92;;
52786;SDS011;38661;53.152;5.846;2022-11-21T05:53:43;44.00;;;26.05;;
52786;SDS011;38661;53.152;5.846;2022-11-21T05:56:10;38.65;;;24.65;;
52786;SDS011;38661;53.152;5.846;2022-11-21T05:58:38;41.58;;;25.80;;
52786;SDS011;38661;53.152;5.846;2022-11-21T06:01:04;44.80;;;26.92;;
52786;SDS011;38661;53.152;5.846;2022-11-21T06:03:33;41.42;;;25.58;;
52786;SDS011;38661;53.152;5.846;2022-11-21T06:08:38;42.70;;;25.08;;
52786;SDS011;38661;53.152;5.846;2022-11-21T06:11:05;45.63;;;27.00;;
52786;SDS011;38661;53.152;5.846;2022-11-21T06:13:33;44.72;;;26.75;;
52786;SDS011;38661;53.152;5.846;2022-11-21T06:16:03;43.80;;;25.35;;
52786;SDS011;38661;53.152;5.846;2022-11-21T06:18:35;43.33;;;26.90;;
52786;SDS011;38661;53.152;5.846;2022-11-21T06:21:03;44.97;;;27.23;;
52786;SDS011;38661;53.152;5.846;2022-11-21T06:23:34;41.08;;;25.13;;
52786;SDS011;38661;53.152;5.846;2022-11-21T06:26:01;41.67;;;26.02;;
52786;SDS011;38661;53.152;5.846;2022-11-21T06:28:30;48.85;;;29.13;;
52786;SDS011;38661;53.152;5.846;2022-11-21T06:31:01;45.60;;;27.60;;
52786;SDS011;38661;53.152;5.846;2022-11-21T06:33:28;41.28;;;25.23;;
52786;SDS011;38661;53.152;5.846;2022-11-21T06:35:54;45.47;;;26.90;;
52786;SDS011;38661;53.152;5.846;2022-11-21T06:38:19;44.45;;;26.52;;
52786;SDS011;38661;53.152;5.846;2022-11-21T06:40:45;47.17;;;28.45;;
52786;SDS011;38661;53.152;5.846;2022-11-21T06:43:11;45.13;;;28.42;;
52786;SDS011;38661;53.152;5.846;2022-11-21T06:45:37;47.53;;;27.40;;
52786;SDS011;38661;53.152;5.846;2022-11-21T06:48:03;44.90;;;28.02;;
52786;SDS011;38661;53.152;5.846;2022-11-21T06:50:29;47.97;;;27.25;;
52786;SDS011;38661;53.152;5.846;2022-11-21T06:52:57;46.58;;;27.42;;
52786;SDS011;38661;53.152;5.846;2022-11-21T06:55:23;51.53;;;29.92;;
52786;SDS011;38661;53.152;5.846;2022-11-21T06:57:51;51.08;;;28.17;;
52786;SDS011;38661;53.152;5.846;2022-11-21T07:00:17;49.95;;;28.95;;
52786;SDS011;38661;53.152;5.846;2022-11-21T07:02:45;53.85;;;28.27;;
52786;SDS011;38661;53.152;5.846;2022-11-21T07:05:10;58.67;;;30.73;;
52786;SDS011;38661;53.152;5.846;2022-11-21T07:07:36;53.00;;;28.92;;
52786;SDS011;38661;53.152;5.846;2022-11-21T07:10:02;54.95;;;29.85;;
52786;SDS011;38661;53.152;5.846;2022-11-21T07:12:28;55.15;;;31.55;;
52786;SDS011;38661;53.152;5.846;2022-11-21T07:15:12;50.65;;;28.85;;
52786;SDS011;38661;53.152;5.846;2022-11-21T07:17:38;48.72;;;28.20;;
52786;SDS011;38661;53.152;5.846;2022-11-21T07:20:04;49.83;;;29.80;;
52786;SDS011;38661;53.152;5.846;2022-11-21T07:22:30;48.13;;;28.73;;
52786;SDS011;38661;53.152;5.846;2022-11-21T07:24:56;53.35;;;28.95;;
52786;SDS011;38661;53.152;5.846;2022-11-21T07:27:21;53.67;;;30.55;;
52786;SDS011;38661;53.152;5.846;2022-11-21T07:29:47;51.08;;;30.45;;
52786;SDS011;38661;53.152;5.846;2022-11-21T07:32:13;52.20;;;29.13;;
52786;SDS011;38661;53.152;5.846;2022-11-21T07:34:39;52.60;;;30.55;;
52786;SDS011;38661;53.152;5.846;2022-11-21T07:37:05;52.60;;;31.77;;
52786;SDS011;38661;53.152;5.846;2022-11-21T07:39:30;56.42;;;30.55;;
52786;SDS011;38661;53.152;5.846;2022-11-21T07:41:56;49.55;;;29.63;;
52786;SDS011;38661;53.152;5.846;2022-11-21T07:44:22;51.17;;;29.58;;
52786;SDS011;38661;53.152;5.846;2022-11-21T07:46:47;52.38;;;29.08;;
52786;SDS011;38661;53.152;5.846;2022-11-21T07:49:13;53.25;;;31.52;;
52786;SDS011;38661;53.152;5.846;2022-11-21T07:51:39;52.30;;;28.88;;
52786;SDS011;38661;53.152;5.846;2022-11-21T07:54:04;50.40;;;28.58;;
52786;SDS011;38661;53.152;5.846;2022-11-21T07:56:30;52.95;;;30.63;;
52786;SDS011;38661;53.152;5.846;2022-11-21T07:58:56;56.40;;;30.80;;
52786;SDS011;38661;53.152;5.846;2022-11-21T08:01:22;57.00;;;29.88;;
52786;SDS011;38661;53.152;5.846;2022-11-21T08:03:47;50.92;;;27.05;;
52786;SDS011;38661;53.152;5.846;2022-11-21T08:06:13;57.50;;;30.05;;
52786;SDS011;38661;53.152;5.846;2022-11-21T08:08:39;54.83;;;29.50;;
52786;SDS011;38661;53.152;5.846;2022-11-21T08:11:05;57.80;;;30.67;;
52786;SDS011;38661;53.152;5.846;2022-11-21T08:13:31;62.30;;;29.58;;
52786;SDS011;38661;53.152;5.846;2022-11-21T08:15:58;57.00;;;30.85;;
52786;SDS011;38661;53.152;5.846;2022-11-21T08:18:25;60.47;;;31.63;;
52786;SDS011;38661;53.152;5.846;2022-11-21T08:20:51;64.38;;;30.65;;
52786;SDS011;38661;53.152;5.846;2022-11-21T08:23:17;61.72;;;30.95;;
52786;SDS011;38661;53.152;5.846;2022-11-21T08:25:43;64.97;;;31.13;;
52786;SDS011;38661;53.152;5.846;2022-11-21T08:28:09;74.80;;;29.30;;
52786;SDS011;38661;53.152;5.846;2022-11-21T08:30:36;63.83;;;30.70;;
52786;SDS011;38661;53.152;5.846;2022-11-21T08:33:02;84.13;;;29.55;;
52786;SDS011;38661;53.152;5.846;2022-11-21T08:35:28;89.40;;;30.15;;
52786;SDS011;38661;53.152;5.846;2022-11-21T08:37:58;66.75;;;30.00;;
52786;SDS011;38661;53.152;5.846;2022-11-21T08:40:25;60.65;;;29.30;;
52786;SDS011;38661;53.152;5.846;2022-11-21T08:42:56;65.15;;;28.33;;
52786;SDS011;38661;53.152;5.846;2022-11-21T08:45:26;75.55;;;27.60;;
52786;SDS011;38661;53.152;5.846;2022-11-21T08:47:52;90.25;;;29.60;;
52786;SDS011;38661;53.152;5.846;2022-11-21T08:50:18;61.08;;;26.98;;
52786;SDS011;38661;53.152;5.846;2022-11-21T08:52:44;73.88;;;25.40;;
52786;SDS011;38661;53.152;5.846;2022-11-21T08:55:10;45.38;;;22.77;;
52786;SDS011;38661;53.152;5.846;2022-11-21T08:57:36;71.68;;;24.75;;
52786;SDS011;38661;53.152;5.846;2022-11-21T09:00:03;56.03;;;21.65;;
52786;SDS011;38661;53.152;5.846;2022-11-21T09:02:29;60.25;;;21.35;;
52786;SDS011;38661;53.152;5.846;2022-11-21T09:04:55;44.60;;;20.02;;
52786;SDS011;38661;53.152;5.846;2022-11-21T09:07:20;42.85;;;21.92;;
52786;SDS011;38661;53.152;5.846;2022-11-21T09:09:46;44.25;;;22.90;;
52786;SDS011;38661;53.152;5.846;2022-11-21T09:12:12;44.13;;;23.13;;
52786;SDS011;38661;53.152;5.846;2022-11-21T09:14:38;40.78;;;22.80;;
52786;SDS011;38661;53.152;5.846;2022-11-21T09:17:22;44.97;;;22.15;;
52786;SDS011;38661;53.152;5.846;2022-11-21T09:20:06;40.38;;;22.02;;
52786;SDS011;38661;53.152;5.846;2022-11-21T09:22:32;42.25;;;22.15;;
52786;SDS011;38661;53.152;5.846;2022-11-21T09:24:58;46.78;;;21.73;;
52786;SDS011;38661;53.152;5.846;2022-11-21T09:27:24;45.53;;;23.25;;
52786;SDS011;38661;53.152;5.846;2022-11-21T09:29:49;45.78;;;20.85;;
52786;SDS011;38661;53.152;5.846;2022-11-21T09:32:15;37.90;;;20.85;;
52786;SDS011;38661;53.152;5.846;2022-11-21T09:34:41;41.15;;;21.27;;
52786;SDS011;38661;53.152;5.846;2022-11-21T09:37:06;42.13;;;22.20;;
52786;SDS011;38661;53.152;5.846;2022-11-21T09:39:32;37.88;;;22.83;;
52786;SDS011;38661;53.152;5.846;2022-11-21T09:42:08;37.78;;;22.20;;
52786;SDS011;38661;53.152;5.846;2022-11-21T09:44:57;32.97;;;20.38;;
52786;SDS011;38661;53.152;5.846;2022-11-21T09:47:32;35.92;;;20.75;;
52786;SDS011;38661;53.152;5.846;2022-11-21T09:50:16;31.83;;;19.55;;
52786;SDS011;38661;53.152;5.846;2022-11-21T09:53:04;32.40;;;18.88;;
52786;SDS011;38661;53.152;5.846;2022-11-21T09:55:45;35.03;;;20.02;;
52786;SDS011;38661;53.152;5.846;2022-11-21T09:58:23;33.15;;;18.45;;
52786;SDS011;38661;53.152;5.846;2022-11-21T10:01:02;28.67;;;17.98;;
52786;SDS011;38661;53.152;5.846;2022-11-21T10:03:30;29.02;;;19.35;;
52786;SDS011;38661;53.152;5.846;2022-11-21T10:06:04;31.63;;;18.45;;
52786;SDS011;38661;53.152;5.846;2022-11-21T10:11:51;31.65;;;17.35;;
52786;SDS011;38661;53.152;5.846;2022-11-21T10:17:43;27.73;;;16.67;;
52786;SDS011;38661;53.152;5.846;2022-11-21T10:20:25;27.05;;;17.67;;
52786;SDS011;38661;53.152;5.846;2022-11-21T10:25:54;38.65;;;26.13;;
52786;SDS011;38661;53.152;5.846;2022-11-21T10:30:56;44.60;;;27.88;;
52786;SDS011;38661;53.152;5.846;2022-11-21T10:33:29;46.72;;;26.33;;
52786;SDS011;38661;53.152;5.846;2022-11-21T10:35:58;33.92;;;22.15;;
52786;SDS011;38661;53.152;5.846;2022-11-21T10:38:45;53.03;;;31.92;;
52786;SDS011;38661;53.152;5.846;2022-11-21T10:41:22;64.25;;;40.13;;
52786;SDS011;38661;53.152;5.846;2022-11-21T10:47:10;26.38;;;17.10;;
52786;SDS011;38661;53.152;5.846;2022-11-21T10:49:59;40.05;;;24.77;;
52786;SDS011;38661;53.152;5.846;2022-11-21T10:55:15;49.58;;;24.63;;
52786;SDS011;38661;53.152;5.846;2022-11-21T10:57:45;23.17;;;15.25;;
52786;SDS011;38661;53.152;5.846;2022-11-21T11:05:34;20.50;;;13.70;;
52786;SDS011;38661;53.152;5.846;2022-11-21T11:08:10;20.38;;;13.73;;
52786;SDS011;38661;53.152;5.846;2022-11-21T11:10:44;18.45;;;12.52;;
52786;SDS011;38661;53.152;5.846;2022-11-21T11:13:24;17.58;;;11.93;;
52786;SDS011;38661;53.152;5.846;2022-11-21T11:18:46;17.52;;;12.00;;
52786;SDS011;38661;53.152;5.846;2022-11-21T11:21:31;16.10;;;11.27;;
52786;SDS011;38661;53.152;5.846;2022-11-21T11:26:34;15.88;;;10.85;;
52786;SDS011;38661;53.152;5.846;2022-11-21T11:29:19;15.35;;;11.43;;
52786;SDS011;38661;53.152;5.846;2022-11-21T11:32:01;14.05;;;10.32;;
52786;SDS011;38661;53.152;5.846;2022-11-21T11:34:47;15.40;;;11.10;;
52786;SDS011;38661;53.152;5.846;2022-11-21T11:40:19;14.13;;;10.07;;
52786;SDS011;38661;53.152;5.846;2022-11-21T11:48:55;18.80;;;13.23;;
52786;SDS011;38661;53.152;5.846;2022-11-21T11:51:30;16.50;;;11.40;;
52786;SDS011;38661;53.152;5.846;2022-11-21T11:54:02;17.40;;;12.45;;
52786;SDS011;38661;53.152;5.846;2022-11-21T11:56:42;17.35;;;12.50;;
52786;SDS011;38661;53.152;5.846;2022-11-21T11:59:12;37.63;;;23.48;;
52786;SDS011;38661;53.152;5.846;2022-11-21T12:04:23;39.38;;;22.70;;
52786;SDS011;38661;53.152;5.846;2022-11-21T12:10:02;152.77;;;67.78;;
52786;SDS011;38661;53.152;5.846;2022-11-21T12:12:42;151.15;;;73.50;;
52786;SDS011;38661;53.152;5.846;2022-11-21T12:15:20;199.27;;;91.68;;
52786;SDS011;38661;53.152;5.846;2022-11-21T12:23:54;32.13;;;20.02;;
52786;SDS011;38661;53.152;5.846;2022-11-21T12:29:18;20.67;;;15.35;;
52786;SDS011;38661;53.152;5.846;2022-11-21T12:45:36;22.63;;;15.90;;
52786;SDS011;38661;53.152;5.846;2022-11-21T12:51:12;22.95;;;16.50;;
52786;SDS011;38661;53.152;5.846;2022-11-21T13:05:24;21.33;;;15.27;;
52786;SDS011;38661;53.152;5.846;2022-11-21T13:08:00;26.50;;;18.35;;
52786;SDS011;38661;53.152;5.846;2022-11-21T13:10:29;24.65;;;15.48;;
52786;SDS011;38661;53.152;5.846;2022-11-21T13:13:13;23.33;;;16.27;;
52786;SDS011;38661;53.152;5.846;2022-11-21T13:18:41;23.65;;;15.85;;
52786;SDS011;38661;53.152;5.846;2022-11-21T13:27:31;24.35;;;15.98;;
52786;SDS011;38661;53.152;5.846;2022-11-21T13:32:47;24.52;;;17.58;;
52786;SDS011;38661;53.152;5.846;2022-11-21T13:56:30;26.15;;;19.05;;
52786;SDS011;38661;53.152;5.846;2022-11-21T14:02:41;28.63;;;21.02;;
52786;SDS011;38661;53.152;5.846;2022-11-21T14:08:18;29.42;;;18.30;;
52786;SDS011;38661;53.152;5.846;2022-11-21T14:10:47;27.60;;;17.92;;
52786;SDS011;38661;53.152;5.846;2022-11-21T14:13:28;31.00;;;17.50;;
52786;SDS011;38661;53.152;5.846;2022-11-21T14:18:51;34.85;;;20.38;;
52786;SDS011;38661;53.152;5.846;2022-11-21T14:21:19;33.75;;;18.88;;
52786;SDS011;38661;53.152;5.846;2022-11-21T14:24:03;32.88;;;21.17;;
52786;SDS011;38661;53.152;5.846;2022-11-21T14:26:43;37.25;;;21.90;;
52786;SDS011;38661;53.152;5.846;2022-11-21T14:29:18;42.92;;;25.85;;
52786;SDS011;38661;53.152;5.846;2022-11-21T14:31:50;42.38;;;26.42;;
52786;SDS011;38661;53.152;5.846;2022-11-21T14:34:26;40.38;;;21.83;;
52786;SDS011;38661;53.152;5.846;2022-11-21T14:36:53;35.35;;;20.70;;
52786;SDS011;38661;53.152;5.846;2022-11-21T14:39:21;41.67;;;19.70;;
52786;SDS011;38661;53.152;5.846;2022-11-21T14:41:51;41.05;;;21.33;;
52786;SDS011;38661;53.152;5.846;2022-11-21T14:44:22;40.95;;;20.55;;
52786;SDS011;38661;53.152;5.846;2022-11-21T14:46:49;40.88;;;21.13;;
52786;SDS011;38661;53.152;5.846;2022-11-21T14:51:45;35.63;;;19.65;;
52786;SDS011;38661;53.152;5.846;2022-11-21T14:54:14;38.95;;;21.05;;
52786;SDS011;38661;53.152;5.846;2022-11-21T14:57:07;44.15;;;20.80;;
52786;SDS011;38661;53.152;5.846;2022-11-21T14:59:37;41.90;;;19.67;;
52786;SDS011;38661;53.152;5.846;2022-11-21T15:02:15;50.17;;;20.58;;
52786;SDS011;38661;53.152;5.846;2022-11-21T15:04:49;58.47;;;24.50;;
52786;SDS011;38661;53.152;5.846;2022-11-21T15:07:24;49.75;;;25.38;;
52786;SDS011;38661;53.152;5.846;2022-11-21T15:09:51;52.83;;;24.20;;
52786;SDS011;38661;53.152;5.846;2022-11-21T15:14:59;57.05;;;24.42;;
52786;SDS011;38661;53.152;5.846;2022-11-21T15:17:45;80.22;;;35.65;;
52786;SDS011;38661;53.152;5.846;2022-11-21T15:22:42;74.88;;;32.28;;
52786;SDS011;38661;53.152;5.846;2022-11-21T15:25:16;84.13;;;38.33;;
52786;SDS011;38661;53.152;5.846;2022-11-21T15:27:44;64.43;;;25.67;;
52786;SDS011;38661;53.152;5.846;2022-11-21T15:43:36;68.38;;;28.15;;
52786;SDS011;38661;53.152;5.846;2022-11-21T15:46:03;69.97;;;28.05;;
52786;SDS011;38661;53.152;5.846;2022-11-21T15:48:35;99.40;;;40.65;;
52786;SDS011;38661;53.152;5.846;2022-11-21T15:51:09;85.68;;;27.77;;
52786;SDS011;38661;53.152;5.846;2022-11-21T15:53:35;72.68;;;29.00;;
52786;SDS011;38661;53.152;5.846;2022-11-21T15:56:02;83.05;;;33.38;;
52786;SDS011;38661;53.152;5.846;2022-11-21T15:58:28;79.95;;;28.23;;
52786;SDS011;38661;53.152;5.846;2022-11-21T16:00:54;86.85;;;29.30;;
52786;SDS011;38661;53.152;5.846;2022-11-21T16:03:20;73.30;;;27.15;;
52786;SDS011;38661;53.152;5.846;2022-11-21T16:05:48;81.45;;;29.27;;
52786;SDS011;38661;53.152;5.846;2022-11-21T16:08:14;71.47;;;27.83;;
52786;SDS011;38661;53.152;5.846;2022-11-21T16:10:43;90.68;;;27.92;;
52786;SDS011;38661;53.152;5.846;2022-11-21T16:13:09;84.53;;;26.92;;
52786;SDS011;38661;53.152;5.846;2022-11-21T16:15:35;102.75;;;30.45;;
52786;SDS011;38661;53.152;5.846;2022-11-21T16:18:01;92.72;;;29.48;;
52786;SDS011;38661;53.152;5.846;2022-11-21T16:20:27;78.82;;;27.73;;
52786;SDS011;38661;53.152;5.846;2022-11-21T16:22:53;78.78;;;26.42;;
52786;SDS011;38661;53.152;5.846;2022-11-21T16:25:21;84.20;;;27.38;;
52786;SDS011;38661;53.152;5.846;2022-11-21T16:27:47;78.47;;;27.52;;
52786;SDS011;38661;53.152;5.846;2022-11-21T16:30:13;84.00;;;27.30;;
52786;SDS011;38661;53.152;5.846;2022-11-21T16:32:38;84.82;;;29.90;;
52786;SDS011;38661;53.152;5.846;2022-11-21T16:35:04;91.70;;;29.23;;
52786;SDS011;38661;53.152;5.846;2022-11-21T16:37:31;88.22;;;30.10;;
52786;SDS011;38661;53.152;5.846;2022-11-21T16:39:56;96.57;;;30.17;;
52786;SDS011;38661;53.152;5.846;2022-11-21T16:42:22;104.45;;;32.75;;
52786;SDS011;38661;53.152;5.846;2022-11-21T16:44:52;84.53;;;27.90;;
52786;SDS011;38661;53.152;5.846;2022-11-21T16:47:23;96.97;;;33.50;;
52786;SDS011;38661;53.152;5.846;2022-11-21T16:49:49;89.97;;;30.23;;
52786;SDS011;38661;53.152;5.846;2022-11-21T16:52:15;96.70;;;31.70;;
52786;SDS011;38661;53.152;5.846;2022-11-21T16:54:42;105.32;;;34.08;;
52786;SDS011;38661;53.152;5.846;2022-11-21T16:57:07;100.22;;;31.05;;
52786;SDS011;38661;53.152;5.846;2022-11-21T16:59:33;90.95;;;32.33;;
52786;SDS011;38661;53.152;5.846;2022-11-21T17:02:03;86.90;;;31.02;;
52786;SDS011;38661;53.152;5.846;2022-11-21T17:04:31;90.88;;;32.45;;
52786;SDS011;38661;53.152;5.846;2022-11-21T17:06:56;91.85;;;32.25;;
52786;SDS011;38661;53.152;5.846;2022-11-21T17:09:22;87.50;;;31.20;;
52786;SDS011;38661;53.152;5.846;2022-11-21T17:11:48;87.45;;;31.83;;
52786;SDS011;38661;53.152;5.846;2022-11-21T17:14:14;84.07;;;31.65;;